createdAt,value
2018-12-19T00:00:58.641Z,13.80
2018-12-19T00:03:26.316Z,15.67
2018-12-19T00:05:53.991Z,16.53
2018-12-19T00:08:21.564Z,18.43
2018-12-19T00:10:49.632Z,16.17
2018-12-19T00:13:19.316Z,14.17
2018-12-19T00:15:46.973Z,13.33
2018-12-19T00:18:14.770Z,14.83
2018-12-19T00:20:42.427Z,13.00
2018-12-19T00:23:10.011Z,13.47
2018-12-19T00:25:37.735Z,14.67
2018-12-19T00:28:05.389Z,14.13
2018-12-19T00:30:32.983Z,11.53
2018-12-19T00:33:00.859Z,13.00
2018-12-19T00:35:28.473Z,13.40
2018-12-19T00:37:56.089Z,10.07
2018-12-19T00:40:23.941Z,11.90
2018-12-19T00:42:51.682Z,10.87
2018-12-19T00:45:20.134Z,12.80
2018-12-19T00:47:48.327Z,12.60
2018-12-19T00:50:15.925Z,10.27
2018-12-19T00:52:43.504Z,11.07
2018-12-19T00:55:11.285Z,13.13
2018-12-19T00:57:38.897Z,9.67
2018-12-19T01:00:08.249Z,11.40
2018-12-19T01:02:36.177Z,9.47
2018-12-19T01:05:03.998Z,11.63
2018-12-19T01:07:31.617Z,10.53
2018-12-19T01:09:59.429Z,15.33
2018-12-19T01:12:27.038Z,9.83
2018-12-19T01:14:54.723Z,10.83
2018-12-19T01:17:22.510Z,11.37
2018-12-19T01:19:50.078Z,14.37
2018-12-19T01:22:18.905Z,11.03
2018-12-19T01:24:46.693Z,11.97
2018-12-19T01:27:14.288Z,11.93
2018-12-19T01:29:42.211Z,10.03
2018-12-19T01:32:10.015Z,11.23
2018-12-19T01:34:37.712Z,12.43
2018-12-19T01:37:05.343Z,8.77
2018-12-19T01:39:33.211Z,10.53
2018-12-19T01:42:00.896Z,10.83
2018-12-19T01:44:28.738Z,12.37
2018-12-19T01:46:56.448Z,10.97
2018-12-19T01:49:24.075Z,11.20
2018-12-19T01:51:51.674Z,12.07
2018-12-19T01:54:19.513Z,10.10
2018-12-19T01:56:47.128Z,15.30
2018-12-19T01:59:14.810Z,12.57
2018-12-19T02:01:42.528Z,11.13
2018-12-19T02:04:10.118Z,13.30
2018-12-19T02:06:37.709Z,12.40
2018-12-19T02:09:08.534Z,10.17
2018-12-19T02:11:36.143Z,15.10
2018-12-19T02:14:03.895Z,12.43
2018-12-19T02:16:31.568Z,10.30
2018-12-19T02:18:59.259Z,11.20
2018-12-19T02:21:26.921Z,11.03
2018-12-19T02:23:54.654Z,11.53
2018-12-19T02:26:22.311Z,14.93
2018-12-19T02:28:49.898Z,12.90
2018-12-19T02:31:18.221Z,11.47
2018-12-19T02:33:45.919Z,10.33
2018-12-19T02:36:13.527Z,8.43
2018-12-19T02:38:41.235Z,12.23
2018-12-19T02:41:09.447Z,11.53
2018-12-19T02:43:37.079Z,13.43
2018-12-19T02:46:04.944Z,12.60
2018-12-19T02:48:32.606Z,14.63
2018-12-19T02:51:01.263Z,9.23
2018-12-19T02:53:29.131Z,11.20
2018-12-19T02:55:57.532Z,9.00
2018-12-19T02:58:25.115Z,8.20
2018-12-19T03:00:53.187Z,9.57
2018-12-19T03:03:20.771Z,12.27
2018-12-19T03:05:48.584Z,10.80
2018-12-19T03:08:16.322Z,12.47
2018-12-19T03:10:44.044Z,12.10
2018-12-19T03:13:11.649Z,10.87
2018-12-19T03:15:39.518Z,12.07
2018-12-19T03:18:07.145Z,10.77
2018-12-19T03:20:34.758Z,10.77
2018-12-19T03:23:02.574Z,12.37
2018-12-19T03:25:30.164Z,11.73
2018-12-19T03:27:57.798Z,11.17
2018-12-19T03:30:25.561Z,12.10
2018-12-19T03:32:53.168Z,11.33
2018-12-19T03:35:20.904Z,11.27
2018-12-19T03:37:49.662Z,9.63
2018-12-19T03:40:17.509Z,13.27
2018-12-19T03:42:45.098Z,13.27
2018-12-19T03:45:13.019Z,12.57
2018-12-19T03:47:41.728Z,8.90
2018-12-19T03:50:09.655Z,12.10
2018-12-19T03:52:37.330Z,9.70
2018-12-19T03:55:04.943Z,13.67
2018-12-19T03:57:33.039Z,11.43
2018-12-19T04:00:00.758Z,11.73
2018-12-19T04:02:28.352Z,12.10
2018-12-19T04:04:56.136Z,12.13
2018-12-19T04:07:24.263Z,10.83
2018-12-19T04:09:57.754Z,11.03
2018-12-19T04:12:21.494Z,11.33
2018-12-19T04:14:49.641Z,11.77
2018-12-19T04:17:17.671Z,8.90
2018-12-19T04:19:45.349Z,9.93
2018-12-19T04:22:13.317Z,10.30
2018-12-19T04:24:40.928Z,9.87
2018-12-19T04:27:08.924Z,8.03
2018-12-19T04:29:36.939Z,12.17
2018-12-19T04:32:04.791Z,9.93
2018-12-19T04:34:32.458Z,11.07
2018-12-19T04:37:00.204Z,12.53
2018-12-19T04:39:27.834Z,13.20
2018-12-19T04:41:55.499Z,10.63
2018-12-19T04:44:23.298Z,9.03
2018-12-19T04:46:50.989Z,9.47
2018-12-19T04:49:18.624Z,9.80
2018-12-19T04:51:46.681Z,9.40
2018-12-19T04:54:14.403Z,10.50
2018-12-19T04:56:41.980Z,10.20
2018-12-19T04:59:10.738Z,10.00
2018-12-19T05:01:38.364Z,9.90
2018-12-19T05:04:06.019Z,10.00
2018-12-19T05:06:34.060Z,9.47
2018-12-19T05:09:01.663Z,11.67
2018-12-19T05:11:29.364Z,10.97
2018-12-19T05:13:57.160Z,9.87
2018-12-19T05:16:24.845Z,10.87
2018-12-19T05:18:52.425Z,10.27
2018-12-19T05:21:20.265Z,12.30
2018-12-19T05:23:48.072Z,9.30
2018-12-19T05:26:15.756Z,8.97
2018-12-19T05:28:43.485Z,11.57
2018-12-19T05:31:12.102Z,7.50
2018-12-19T05:33:39.686Z,8.43
2018-12-19T05:36:07.432Z,8.37
2018-12-19T05:38:35.008Z,10.03
2018-12-19T05:41:02.774Z,8.27
2018-12-19T05:43:30.534Z,8.67
2018-12-19T05:45:58.438Z,9.00
2018-12-19T05:48:26.024Z,10.13
2018-12-19T05:50:53.722Z,9.17
2018-12-19T05:53:21.369Z,9.27
2018-12-19T05:55:49.383Z,9.53
2018-12-19T05:58:17.539Z,8.50
2018-12-19T06:00:45.188Z,9.97
2018-12-19T06:03:13.304Z,12.53
2018-12-19T06:05:41.257Z,7.90
2018-12-19T06:08:08.923Z,7.87
2018-12-19T06:10:36.656Z,9.77
2018-12-19T06:13:04.574Z,8.63
2018-12-19T06:15:32.182Z,9.77
2018-12-19T06:18:00.103Z,12.63
2018-12-19T06:20:27.876Z,10.27
2018-12-19T06:22:55.516Z,8.37
2018-12-19T06:25:23.335Z,10.37
2018-12-19T06:27:51.486Z,12.37
2018-12-19T06:30:20.772Z,11.80
2018-12-19T06:32:49.040Z,12.47
2018-12-19T06:35:16.855Z,9.23
2018-12-19T06:37:44.570Z,13.13
2018-12-19T06:40:13.200Z,9.73
2018-12-19T06:42:41.911Z,7.17
2018-12-19T06:45:09.779Z,8.93
2018-12-19T06:47:38.186Z,9.70
2018-12-19T06:50:07.579Z,8.73
2018-12-19T06:52:35.161Z,8.93
2018-12-19T06:55:02.923Z,8.67
2018-12-19T06:57:30.697Z,8.70
2018-12-19T06:59:58.374Z,8.63
2018-12-19T07:02:25.964Z,9.03
2018-12-19T07:04:53.688Z,15.00
2018-12-19T07:07:21.350Z,5.97
2018-12-19T07:09:49.691Z,9.53
2018-12-19T07:12:18.634Z,9.20
2018-12-19T07:14:46.390Z,9.60
2018-12-19T07:17:14.361Z,8.93
2018-12-19T07:19:42.178Z,9.07
2018-12-19T07:22:09.768Z,7.40
2018-12-19T07:24:37.343Z,7.43
2018-12-19T07:27:05.119Z,7.87
2018-12-19T07:29:32.705Z,7.87
2018-12-19T07:32:00.350Z,9.03
2018-12-19T07:34:28.068Z,9.17
2018-12-19T07:36:55.677Z,11.40
2018-12-19T07:39:23.373Z,9.87
2018-12-19T07:41:51.038Z,9.37
2018-12-19T07:44:19.611Z,8.73
2018-12-19T07:46:48.514Z,8.87
2018-12-19T07:49:16.266Z,6.90
2018-12-19T07:51:43.881Z,12.33
2018-12-19T07:54:12.113Z,9.97
2018-12-19T07:56:39.818Z,9.10
2018-12-19T07:59:07.476Z,12.47
2018-12-19T08:01:35.131Z,10.30
2018-12-19T08:04:03.063Z,10.47
2018-12-19T08:06:30.675Z,8.97
2018-12-19T08:08:58.297Z,9.23
2018-12-19T08:11:26.135Z,9.63
2018-12-19T08:13:54.055Z,8.47
2018-12-19T08:16:21.676Z,8.07
2018-12-19T08:18:49.783Z,8.53
2018-12-19T08:21:17.773Z,10.97
2018-12-19T08:23:45.352Z,9.57
2018-12-19T08:26:14.040Z,10.13
2018-12-19T08:28:42.151Z,10.43
2018-12-19T08:31:09.966Z,11.43
2018-12-19T08:33:37.853Z,10.60
2018-12-19T08:36:05.478Z,14.83
2018-12-19T08:38:33.104Z,10.60
2018-12-19T08:41:01.031Z,11.23
2018-12-19T08:43:28.618Z,11.30
2018-12-19T08:45:56.582Z,11.70
2018-12-19T08:48:24.349Z,12.77
2018-12-19T08:50:51.957Z,10.80
2018-12-19T08:53:19.587Z,12.10
2018-12-19T08:55:48.066Z,9.97
2018-12-19T08:58:15.682Z,11.90
2018-12-19T09:00:43.262Z,10.60
2018-12-19T09:03:11.749Z,10.27
2018-12-19T09:05:39.404Z,9.57
2018-12-19T09:08:07.029Z,10.87
2018-12-19T09:10:34.763Z,11.93
2018-12-19T09:13:02.396Z,11.83
2018-12-19T09:18:39.942Z,8.83
2018-12-19T09:21:07.813Z,10.60
2018-12-19T09:23:35.408Z,12.83
2018-12-19T09:26:03.019Z,9.23
2018-12-19T09:28:30.863Z,12.97
2018-12-19T09:30:58.468Z,10.53
2018-12-19T09:33:27.480Z,12.53
2018-12-19T09:35:55.685Z,11.10
2018-12-19T09:38:23.270Z,11.00
2018-12-19T09:40:50.912Z,11.43
2018-12-19T09:43:19.175Z,11.10
2018-12-19T09:45:46.819Z,12.50
2018-12-19T09:48:15.456Z,10.70
2018-12-19T09:50:43.271Z,10.97
2018-12-19T09:53:10.854Z,11.60
2018-12-19T09:55:38.462Z,11.97
2018-12-19T09:58:06.285Z,13.43
2018-12-19T10:00:33.896Z,10.80
2018-12-19T10:03:01.469Z,9.83
2018-12-19T10:05:29.867Z,10.90
2018-12-19T10:07:57.519Z,10.80
2018-12-19T10:10:25.155Z,12.00
2018-12-19T10:12:53.245Z,11.87
2018-12-19T10:15:20.869Z,11.40
2018-12-19T10:17:48.497Z,12.07
2018-12-19T10:20:16.392Z,9.93
2018-12-19T10:22:44.142Z,11.37
2018-12-19T10:25:13.532Z,12.77
2018-12-19T10:27:41.279Z,11.00
2018-12-19T10:30:10.796Z,12.77
2018-12-19T10:32:40.351Z,11.17
2018-12-19T10:35:09.855Z,10.27
2018-12-19T10:37:37.598Z,11.87
2018-12-19T10:40:08.014Z,13.13
2018-12-19T10:42:36.151Z,11.70
2018-12-19T10:45:05.491Z,14.80
2018-12-19T10:47:33.186Z,12.43
2018-12-19T10:50:01.009Z,12.23
2018-12-19T10:52:28.667Z,10.37
2018-12-19T10:54:56.240Z,9.80
2018-12-19T10:57:24.030Z,11.70
2018-12-19T10:59:51.606Z,14.67
2018-12-19T11:02:19.573Z,10.17
2018-12-19T11:04:48.676Z,12.80
2018-12-19T11:07:16.526Z,11.80
2018-12-19T11:09:45.333Z,13.70
2018-12-19T11:12:14.001Z,15.40
2018-12-19T11:14:41.656Z,10.73
2018-12-19T11:17:09.481Z,16.30
2018-12-19T11:19:37.395Z,12.70
2018-12-19T11:22:07.003Z,14.43
2018-12-19T11:24:34.594Z,15.87
2018-12-19T11:27:02.465Z,15.07
2018-12-19T11:29:30.116Z,15.67
2018-12-19T11:31:57.682Z,12.90
2018-12-19T11:34:25.394Z,16.00
2018-12-19T11:36:53.073Z,14.47
2018-12-19T11:39:20.661Z,11.27
2018-12-19T11:41:48.885Z,15.07
2018-12-19T11:44:16.744Z,15.37
2018-12-19T11:46:44.339Z,18.00
2018-12-19T11:49:12.047Z,18.77
2018-12-19T11:51:39.861Z,16.77
2018-12-19T11:54:07.496Z,15.53
2018-12-19T11:56:35.163Z,15.57
2018-12-19T11:59:02.839Z,12.70
2018-12-19T12:01:30.467Z,16.50
2018-12-19T12:03:58.237Z,15.17
2018-12-19T12:06:25.881Z,12.60
2018-12-19T12:08:53.548Z,16.53
2018-12-19T12:11:21.326Z,14.37
2018-12-19T12:13:49.361Z,13.93
2018-12-19T12:16:17.008Z,15.80
2018-12-19T12:18:45.138Z,15.03
2018-12-19T12:21:12.757Z,14.40
2018-12-19T12:23:47.158Z,14.83
2018-12-19T12:26:10.664Z,14.33
2018-12-19T12:28:38.270Z,15.73
2018-12-19T12:31:05.887Z,12.10
2018-12-19T12:33:33.567Z,11.77
2018-12-19T12:36:01.259Z,15.23
2018-12-19T12:38:34.041Z,12.90
2018-12-19T12:40:58.651Z,11.83
2018-12-19T12:43:26.242Z,12.03
2018-12-19T12:45:53.878Z,9.87
2018-12-19T12:48:21.565Z,9.70
2018-12-19T12:50:49.942Z,13.33
2018-12-19T12:53:19.593Z,11.10
2018-12-19T12:55:47.942Z,14.30
2018-12-19T12:58:17.479Z,11.53
2018-12-19T13:00:45.069Z,10.73
2018-12-19T13:03:12.907Z,10.43
2018-12-19T13:05:40.520Z,17.93
2018-12-19T13:08:08.185Z,11.33
2018-12-19T13:10:36.376Z,15.33
2018-12-19T13:13:04.220Z,15.53
2018-12-19T13:15:37.592Z,12.20
2018-12-19T13:18:05.213Z,14.93
2018-12-19T13:20:32.908Z,13.50
2018-12-19T13:23:00.627Z,12.70
2018-12-19T13:25:28.318Z,14.67
2018-12-19T13:27:56.121Z,13.87
2018-12-19T13:30:23.866Z,11.37
2018-12-19T13:32:51.472Z,12.33
2018-12-19T13:35:19.280Z,13.17
2018-12-19T13:37:47.797Z,13.17
2018-12-19T13:40:16.592Z,13.87
2018-12-19T13:42:44.357Z,13.57
2018-12-19T13:45:12.096Z,14.43
2018-12-19T13:47:39.688Z,16.27
2018-12-19T13:50:07.354Z,12.33
2018-12-19T13:52:35.224Z,14.43
2018-12-19T13:55:02.958Z,15.07
2018-12-19T13:57:30.550Z,14.27
2018-12-19T13:59:58.322Z,12.20
2018-12-19T14:02:25.931Z,15.40
2018-12-19T14:04:53.512Z,14.73
2018-12-19T14:07:21.368Z,13.20
2018-12-19T14:09:49.464Z,14.30
2018-12-19T14:12:19.371Z,13.67
2018-12-19T14:14:47.579Z,13.47
2018-12-19T14:17:15.929Z,13.23
2018-12-19T14:19:43.555Z,14.43
2018-12-19T14:22:11.355Z,11.57
2018-12-19T14:24:38.942Z,14.00
2018-12-19T14:27:06.583Z,13.50
2018-12-19T14:29:34.485Z,14.47
2018-12-19T14:32:02.182Z,11.80
2018-12-19T14:34:29.810Z,16.70
2018-12-19T14:36:57.500Z,13.40
2018-12-19T14:39:25.192Z,10.47
2018-12-19T14:41:52.788Z,16.63
2018-12-19T14:44:20.475Z,10.83
2018-12-19T14:46:49.333Z,14.67
2018-12-19T14:49:18.531Z,18.30
2018-12-19T14:51:46.333Z,15.97
2018-12-19T14:54:13.992Z,12.80
2018-12-19T14:56:41.649Z,17.30
2018-12-19T14:59:09.432Z,12.93
2018-12-19T15:01:37.067Z,14.10
2018-12-19T15:04:04.646Z,13.43
2018-12-19T15:06:32.425Z,19.37
2018-12-19T15:09:00.027Z,13.23
2018-12-19T15:11:27.630Z,13.67
2018-12-19T15:13:55.442Z,15.70
2018-12-19T15:16:23.132Z,14.70
2018-12-19T15:18:50.830Z,13.57
2018-12-19T15:21:18.618Z,12.33
2018-12-19T15:23:46.233Z,15.67
2018-12-19T15:26:13.858Z,19.03
2018-12-19T15:28:41.570Z,13.00
2018-12-19T15:31:09.190Z,11.00
2018-12-19T15:33:36.821Z,16.50
2018-12-19T15:36:04.790Z,10.67
2018-12-19T15:38:32.551Z,13.53
2018-12-19T15:41:00.144Z,15.83
2018-12-19T15:43:27.904Z,14.27
2018-12-19T15:45:55.585Z,18.23
2018-12-19T15:48:23.452Z,15.37
2018-12-19T15:50:51.142Z,14.50
2018-12-19T15:53:19.437Z,13.77
2018-12-19T15:55:47.186Z,13.87
2018-12-19T15:58:15.293Z,16.33
2018-12-19T16:00:42.916Z,15.70
2018-12-19T16:03:10.560Z,14.07
2018-12-19T16:05:38.360Z,20.83
2018-12-19T16:08:07.935Z,14.70
2018-12-19T16:10:35.521Z,13.77
2018-12-19T16:13:03.236Z,12.77
2018-12-19T16:15:30.851Z,15.27
2018-12-19T16:17:58.477Z,14.60
2018-12-19T16:20:26.283Z,13.63
2018-12-19T16:22:53.923Z,12.10
2018-12-19T16:25:21.639Z,14.80
2018-12-19T16:27:49.385Z,14.47
2018-12-19T16:30:17.084Z,14.57
2018-12-19T16:32:44.753Z,17.07
2018-12-19T16:35:12.470Z,13.20
2018-12-19T16:37:40.144Z,15.97
2018-12-19T16:40:07.860Z,11.23
2018-12-19T16:42:35.620Z,17.30
2018-12-19T16:45:06.208Z,15.97
2018-12-19T16:47:47.315Z,12.07
2018-12-19T16:50:16.083Z,17.90
2018-12-19T16:53:01.162Z,14.57
2018-12-19T16:55:29.149Z,16.17
2018-12-19T16:58:00.541Z,15.47
2018-12-19T17:00:28.452Z,16.03
2018-12-19T17:02:56.115Z,12.70
2018-12-19T17:05:23.762Z,15.13
2018-12-19T17:07:51.565Z,17.80
2018-12-19T17:10:19.360Z,14.57
2018-12-19T17:12:52.564Z,14.93
2018-12-19T17:15:17.256Z,12.60
2018-12-19T17:17:45.813Z,14.37
2018-12-19T17:20:16.426Z,12.67
2018-12-19T17:22:45.084Z,14.10
2018-12-19T17:25:12.794Z,12.97
2018-12-19T17:27:41.454Z,11.23
2018-12-19T17:30:11.122Z,13.87
2018-12-19T17:32:39.700Z,13.47
2018-12-19T17:35:07.364Z,11.83
2018-12-19T17:37:36.021Z,14.03
2018-12-19T17:40:05.588Z,15.73
2018-12-19T17:42:34.316Z,16.23
2018-12-19T17:45:03.008Z,13.60
2018-12-19T17:47:30.661Z,11.77
2018-12-19T17:49:58.432Z,12.07
2018-12-19T17:52:29.051Z,13.80
2018-12-19T17:54:58.433Z,13.73
2018-12-19T17:57:26.944Z,9.50
2018-12-19T17:59:55.675Z,11.87
2018-12-19T18:02:24.333Z,11.13
2018-12-19T18:04:52.912Z,14.17
2018-12-19T18:07:21.035Z,10.53
2018-12-19T18:09:49.686Z,10.43
2018-12-19T18:12:20.334Z,11.37
2018-12-19T18:14:49.615Z,11.73
2018-12-19T18:17:19.245Z,11.17
2018-12-19T18:19:55.964Z,12.17
2018-12-19T18:22:23.662Z,13.40
2018-12-19T18:24:59.432Z,12.07
2018-12-19T18:27:33.047Z,11.47
2018-12-19T18:30:09.945Z,10.07
2018-12-19T18:32:38.414Z,12.93
2018-12-19T18:35:07.839Z,11.20
2018-12-19T18:37:35.687Z,11.90
2018-12-19T18:40:05.272Z,11.87
2018-12-19T18:42:32.927Z,12.00
2018-12-19T18:45:01.048Z,10.57
2018-12-19T18:47:29.846Z,12.37
2018-12-19T18:49:58.471Z,10.33
2018-12-19T18:52:31.056Z,12.37
2018-12-19T18:54:59.008Z,9.07
2018-12-19T18:57:39.594Z,13.53
2018-12-19T19:00:07.908Z,7.90
2018-12-19T19:02:36.914Z,11.17
2018-12-19T19:05:06.388Z,13.30
2018-12-19T19:07:41.192Z,13.13
2018-12-19T19:10:10.104Z,10.83
2018-12-19T19:12:37.911Z,9.07
2018-12-19T19:15:06.386Z,12.57
2018-12-19T19:17:35.052Z,11.53
2018-12-19T19:20:06.329Z,9.20
2018-12-19T19:22:37.168Z,10.47
2018-12-19T19:25:05.852Z,10.13
2018-12-19T19:27:33.550Z,13.00
2018-12-19T19:30:01.361Z,9.40
2018-12-19T19:32:30.302Z,10.83
2018-12-19T19:34:58.865Z,10.10
2018-12-19T19:37:26.706Z,10.37
2018-12-19T19:39:56.426Z,9.50
2018-12-19T19:42:25.969Z,11.07
2018-12-19T19:44:54.708Z,8.63
2018-12-19T19:47:22.576Z,8.07
2018-12-19T19:49:51.205Z,12.73
2018-12-19T19:52:21.534Z,11.30
2018-12-19T19:54:50.578Z,8.77
2018-12-19T19:57:19.715Z,10.47
2018-12-19T19:59:47.884Z,9.33
2018-12-19T20:02:16.941Z,10.97
2018-12-19T20:04:44.762Z,11.30
2018-12-19T20:07:12.541Z,9.00
2018-12-19T20:09:41.670Z,11.50
2018-12-19T20:12:09.342Z,9.43
2018-12-19T20:14:37.733Z,9.80
2018-12-19T20:17:05.377Z,10.03
2018-12-19T20:19:33.069Z,9.43
2018-12-19T20:22:01.384Z,10.53
2018-12-19T20:24:31.084Z,8.47
2018-12-19T20:26:59.590Z,6.73
2018-12-19T20:29:28.155Z,10.00
2018-12-19T20:31:55.845Z,9.83
2018-12-19T20:34:23.502Z,10.13
2018-12-19T20:36:52.113Z,11.87
2018-12-19T20:39:20.682Z,10.40
2018-12-19T20:41:50.393Z,11.23
2018-12-19T20:44:21.637Z,7.70
2018-12-19T20:46:52.226Z,9.37
2018-12-19T20:49:21.465Z,10.17
2018-12-19T20:51:50.616Z,9.50
2018-12-19T20:54:19.006Z,10.77
2018-12-19T20:56:48.678Z,11.00
2018-12-19T20:59:17.189Z,9.10
2018-12-19T21:01:45.192Z,9.83
2018-12-19T21:04:13.671Z,10.43
2018-12-19T21:06:41.478Z,9.23
2018-12-19T21:09:10.082Z,10.50
2018-12-19T21:11:37.803Z,10.07
2018-12-19T21:14:05.648Z,10.63
2018-12-19T21:16:39.078Z,11.27
2018-12-19T21:19:07.874Z,10.70
2018-12-19T21:21:35.642Z,9.77
2018-12-19T21:24:03.327Z,14.37
2018-12-19T21:26:33.030Z,15.30
2018-12-19T21:29:01.573Z,12.00
2018-12-19T21:31:29.289Z,13.20
2018-12-19T21:33:57.017Z,11.97
2018-12-19T21:36:24.758Z,10.50
2018-12-19T21:38:52.397Z,12.60
2018-12-19T21:41:22.354Z,14.83
2018-12-19T21:43:53.877Z,11.93
2018-12-19T21:46:20.618Z,15.23
2018-12-19T21:48:49.431Z,14.27
2018-12-19T21:51:17.053Z,12.60
2018-12-19T21:53:44.632Z,11.47
2018-12-19T21:56:12.338Z,14.53
2018-12-19T21:58:40.022Z,11.90
2018-12-19T22:01:07.612Z,12.53
2018-12-19T22:03:35.357Z,15.43
2018-12-19T22:06:03.176Z,14.43
2018-12-19T22:08:31.135Z,12.67
2018-12-19T22:10:59.056Z,11.57
2018-12-19T22:13:26.708Z,11.23
2018-12-19T22:15:54.318Z,10.27
2018-12-19T22:18:27.792Z,10.97
2018-12-19T22:20:55.397Z,13.13
2018-12-19T22:23:23.022Z,11.47
2018-12-19T22:25:50.865Z,13.33
2018-12-19T22:28:18.730Z,12.50
2018-12-19T22:30:46.308Z,11.00
2018-12-19T22:33:14.273Z,10.93
2018-12-19T22:35:42.004Z,15.60
2018-12-19T22:38:09.613Z,15.87
2018-12-19T22:40:37.493Z,13.80
2018-12-19T22:43:05.147Z,15.10
2018-12-19T22:45:32.833Z,18.33
2018-12-19T22:48:00.865Z,16.27
2018-12-19T22:50:28.571Z,16.97
2018-12-19T22:52:56.156Z,15.70
2018-12-19T22:55:24.034Z,18.70
2018-12-19T22:57:51.606Z,18.43
2018-12-19T23:00:19.703Z,14.87
2018-12-19T23:02:53.099Z,16.47
2018-12-19T23:05:22.730Z,18.63
2018-12-19T23:07:50.530Z,17.33
2018-12-19T23:10:19.023Z,14.97
2018-12-19T23:12:46.756Z,16.23
2018-12-19T23:15:14.334Z,17.73
2018-12-19T23:17:42.289Z,19.60
2018-12-19T23:20:10.188Z,15.73
2018-12-19T23:22:37.831Z,15.47
2018-12-19T23:25:05.785Z,17.80
2018-12-19T23:27:33.601Z,17.00
2018-12-19T23:30:01.210Z,17.90
2018-12-19T23:32:28.989Z,20.30
2018-12-19T23:34:56.647Z,15.03
2018-12-19T23:37:24.360Z,18.43
2018-12-19T23:39:52.226Z,20.23
2018-12-19T23:42:19.895Z,18.80
2018-12-19T23:44:48.910Z,18.00
2018-12-19T23:47:16.598Z,17.93
2018-12-19T23:49:44.443Z,15.73
2018-12-19T23:52:12.241Z,16.50
2018-12-19T23:54:40.238Z,17.17
2018-12-19T23:57:07.915Z,16.43
2018-12-19T23:59:35.603Z,14.13
